Skip Navigation Links Skip Navigation Links

Current Weather

Resolute, N.T.

For information only: do not use for flight planning or navigation.
Latest weather
Observation time Friday, May 25, 2018 7:00 AM CDT
Local time Friday, May 25, 2018 7:39 AM CDT
Flight conditions Instrument Meteorological Conditions
Winds
Wind direction West-Northwest (300°)
Wind speed 8 mph
Visibility 15 mi.
Sky condition
Ceiling 700 ft. overcast
Cloud layer overcast 700 ft.
Temperature 18°F
Dewpoint 14°F
Altimeter 30.02 in.Hg
Derived measurements
Relative humidity 85%
Wind chill 7°F
Density altitude -2710 ft.
Sea-level pressure 30.04 in.Hg
METAR CYRB 251200Z 30007KT 15SM OVC007 M08/M10 A3002 RMK ST8 SLP174

Settings

Location code

InnerDrive.Weather 4.0.6615.0 Release CLR 4.0.30319.42000
Copyright ©2018 Inner Drive Technology. All rights reserved. Portions Copyright ©1986-2018 David Braverman.

Find weather

Site navigation


Skip Navigation Links

Place info

Page info

PayPal - The safer, easier way to pay online!

Return home.

Copyright ©2018 Inner Drive Technology. Purveyors of fine, hand-crafted computer software. Page printed 2018-05-25T12:39:21 UTC.